createdAt,value
2022-08-30T00:00:12.266Z,5.05
2022-08-30T00:03:15.654Z,5.07
2022-08-30T00:06:19.842Z,4.97
2022-08-30T00:09:22.620Z,4.45
2022-08-30T00:12:25.454Z,5.10
2022-08-30T00:15:29.380Z,4.72
2022-08-30T00:18:31.862Z,4.87
2022-08-30T00:21:34.793Z,4.90
2022-08-30T00:24:38.324Z,5.03
2022-08-30T00:27:42.120Z,4.68
2022-08-30T00:30:45.437Z,4.87
2022-08-30T00:33:48.293Z,4.80
2022-08-30T00:36:50.761Z,5.20
2022-08-30T00:39:53.568Z,4.62
2022-08-30T00:42:59.651Z,5.15
2022-08-30T00:46:08.273Z,5.55
2022-08-30T00:49:12.944Z,5.37
2022-08-30T00:52:18.601Z,5.45
2022-08-30T00:55:21.432Z,5.50
2022-08-30T00:58:31.120Z,5.40
2022-08-30T01:01:34.373Z,5.55
2022-08-30T01:04:40.735Z,5.50
2022-08-30T01:07:43.359Z,5.50
2022-08-30T01:10:46.564Z,5.80
2022-08-30T01:13:51.642Z,5.82
2022-08-30T01:16:57.670Z,5.80
2022-08-30T01:20:05.926Z,6.00
2022-08-30T01:23:13.615Z,6.00
2022-08-30T01:26:17.584Z,6.20
2022-08-30T01:29:25.853Z,6.25
2022-08-30T01:32:29.585Z,6.05
2022-08-30T01:35:38.986Z,5.60
2022-08-30T01:38:54.653Z,5.95
2022-08-30T01:41:57.812Z,6.20
2022-08-30T01:45:00.528Z,6.65
2022-08-30T01:48:05.518Z,5.87
2022-08-30T01:51:14.178Z,6.90
2022-08-30T01:54:16.960Z,6.93
2022-08-30T01:57:22.952Z,6.60
2022-08-30T02:00:25.762Z,7.05
2022-08-30T02:03:33.071Z,7.15
2022-08-30T02:06:39.042Z,7.07
2022-08-30T02:09:44.363Z,7.25
2022-08-30T02:12:49.047Z,6.72
2022-08-30T02:15:52.096Z,6.80
2022-08-30T02:18:57.202Z,6.68
2022-08-30T02:22:00.147Z,6.70
2022-08-30T02:25:05.155Z,7.68
2022-08-30T02:28:08.650Z,6.53
2022-08-30T02:31:11.899Z,6.80
2022-08-30T02:34:15.367Z,7.15
2022-08-30T02:37:18.533Z,6.10
2022-08-30T02:40:22.284Z,6.10
2022-08-30T02:43:25.500Z,6.43
2022-08-30T02:46:33.140Z,5.80
2022-08-30T02:49:38.232Z,6.12
2022-08-30T02:52:40.844Z,6.95
2022-08-30T02:55:44.708Z,6.20
2022-08-30T02:58:48.227Z,6.40
2022-08-30T03:01:51.033Z,6.45
2022-08-30T03:04:53.614Z,6.40
2022-08-30T03:07:56.445Z,6.37
2022-08-30T03:11:00.047Z,6.62
2022-08-30T03:14:02.842Z,6.62
2022-08-30T03:17:07.302Z,6.43
2022-08-30T03:20:16.698Z,6.18
2022-08-30T03:23:21.848Z,6.60
2022-08-30T03:26:24.984Z,6.20
2022-08-30T03:29:29.699Z,6.55
2022-08-30T03:32:32.603Z,6.60
2022-08-30T03:35:35.056Z,6.55
2022-08-30T03:38:38.531Z,6.62
2022-08-30T03:41:41.038Z,6.82
2022-08-30T03:44:44.143Z,6.85
2022-08-30T03:47:46.856Z,6.93
2022-08-30T03:50:49.638Z,6.70
2022-08-30T03:53:52.364Z,6.57
2022-08-30T03:56:56.217Z,7.03
2022-08-30T03:59:58.796Z,6.95
2022-08-30T04:03:01.593Z,7.00
2022-08-30T04:06:05.125Z,7.20
2022-08-30T04:09:07.840Z,7.20
2022-08-30T04:12:10.658Z,7.10
2022-08-30T04:15:13.721Z,7.53
2022-08-30T04:18:17.597Z,6.87
2022-08-30T04:21:20.131Z,7.45
2022-08-30T04:24:23.230Z,7.15
2022-08-30T04:27:25.801Z,6.85
2022-08-30T04:30:28.602Z,7.68
2022-08-30T04:33:31.074Z,7.12
2022-08-30T04:36:37.754Z,7.25
2022-08-30T04:39:42.622Z,7.25
2022-08-30T04:42:45.360Z,7.50
2022-08-30T04:45:48.299Z,7.25
2022-08-30T04:48:51.216Z,6.53
2022-08-30T04:51:53.899Z,6.97
2022-08-30T04:54:57.692Z,7.00
2022-08-30T04:58:00.923Z,6.70
2022-08-30T05:01:04.766Z,6.72
2022-08-30T05:04:07.368Z,7.10
2022-08-30T05:07:10.211Z,6.85
2022-08-30T05:10:12.935Z,7.20
2022-08-30T05:13:17.604Z,5.95
2022-08-30T05:16:20.538Z,6.10
2022-08-30T05:19:23.669Z,6.40
2022-08-30T05:22:28.069Z,6.62
2022-08-30T05:25:34.096Z,5.80
2022-08-30T05:28:37.238Z,6.10
2022-08-30T05:31:40.154Z,5.65
2022-08-30T05:34:42.741Z,6.12
2022-08-30T05:37:45.952Z,6.20
2022-08-30T05:40:48.382Z,5.90
2022-08-30T05:43:54.067Z,5.70
2022-08-30T05:46:56.547Z,5.50
2022-08-30T05:49:59.411Z,5.15
2022-08-30T05:53:02.059Z,5.50
2022-08-30T05:56:07.713Z,5.32
2022-08-30T05:59:10.354Z,5.62
2022-08-30T06:02:13.372Z,5.85
2022-08-30T06:05:16.255Z,5.30
2022-08-30T06:08:19.011Z,5.82
2022-08-30T06:11:23.799Z,5.65
2022-08-30T06:14:29.270Z,5.65
2022-08-30T06:17:32.043Z,7.03
2022-08-30T06:20:40.021Z,7.03
2022-08-30T06:23:42.909Z,7.05
2022-08-30T06:26:47.131Z,6.12
2022-08-30T06:29:53.598Z,6.47
2022-08-30T06:32:56.056Z,6.97
2022-08-30T06:36:20.729Z,6.50
2022-08-30T06:39:24.006Z,6.47
2022-08-30T06:42:32.187Z,5.78
2022-08-30T06:45:35.505Z,6.32
2022-08-30T06:48:38.688Z,5.50
2022-08-30T06:51:41.321Z,5.78
2022-08-30T06:54:44.919Z,5.30
2022-08-30T06:57:47.456Z,5.32
2022-08-30T07:00:50.269Z,5.45
2022-08-30T07:03:53.864Z,5.45
2022-08-30T07:06:56.621Z,6.87
2022-08-30T07:09:59.482Z,5.97
2022-08-30T07:13:02.179Z,5.22
2022-08-30T07:16:12.702Z,5.60
2022-08-30T07:19:19.437Z,5.57
2022-08-30T07:22:23.963Z,5.57
2022-08-30T07:25:27.341Z,5.82
2022-08-30T07:28:29.866Z,5.20
2022-08-30T07:31:34.472Z,5.15
2022-08-30T07:34:37.025Z,4.78
2022-08-30T07:37:39.883Z,4.68
2022-08-30T07:40:42.619Z,4.07
2022-08-30T07:43:46.185Z,4.40
2022-08-30T07:46:48.772Z,4.03
2022-08-30T07:49:51.700Z,3.55
2022-08-30T07:52:54.275Z,3.20
2022-08-30T07:55:57.157Z,2.97
2022-08-30T07:58:59.866Z,2.90
2022-08-30T08:02:02.951Z,2.92
2022-08-30T08:05:08.169Z,2.95
2022-08-30T08:08:11.513Z,3.08
2022-08-30T08:11:18.044Z,2.95
2022-08-30T08:14:21.694Z,3.20
2022-08-30T08:17:24.490Z,3.50
2022-08-30T08:20:28.315Z,2.87
2022-08-30T08:23:31.175Z,2.90
2022-08-30T08:26:38.096Z,3.10
2022-08-30T08:29:43.930Z,2.85
2022-08-30T08:32:48.423Z,3.10
2022-08-30T08:35:51.362Z,3.58
2022-08-30T08:38:53.953Z,3.22
2022-08-30T08:42:14.756Z,3.00
2022-08-30T08:45:23.973Z,3.10
2022-08-30T08:48:51.834Z,3.08
2022-08-30T08:52:16.406Z,3.00
2022-08-30T08:55:23.286Z,2.72
2022-08-30T08:58:29.939Z,3.42
2022-08-30T09:01:33.631Z,3.40
2022-08-30T09:04:39.294Z,3.30
2022-08-30T09:07:48.996Z,3.22
2022-08-30T09:11:18.314Z,3.00
2022-08-30T09:14:46.016Z,3.07
2022-08-30T09:17:54.605Z,2.40
2022-08-30T09:24:11.128Z,2.65
2022-08-30T09:27:26.688Z,3.22
2022-08-30T09:30:30.068Z,3.10
2022-08-30T09:33:33.456Z,3.35
2022-08-30T09:36:44.018Z,3.15
2022-08-30T09:39:47.238Z,3.50
2022-08-30T09:43:19.629Z,3.25
2022-08-30T09:46:24.624Z,3.70
2022-08-30T09:49:41.445Z,3.60
2022-08-30T09:53:10.500Z,3.10
2022-08-30T09:59:33.812Z,3.50
2022-08-30T10:03:07.366Z,3.33
2022-08-30T10:06:23.653Z,3.50
2022-08-30T10:09:52.898Z,3.60
2022-08-30T10:13:19.953Z,3.55
2022-08-30T10:16:45.149Z,3.65
2022-08-30T10:20:30.329Z,3.70
2022-08-30T10:23:42.782Z,3.60
2022-08-30T10:27:00.059Z,3.42
2022-08-30T10:30:36.316Z,4.18
2022-08-30T10:33:45.224Z,3.53
2022-08-30T10:37:13.603Z,3.30
2022-08-30T10:40:56.643Z,3.80
2022-08-30T10:43:59.763Z,3.37
2022-08-30T10:47:06.139Z,3.65
2022-08-30T10:50:21.675Z,3.55
2022-08-30T10:53:44.803Z,3.42
2022-08-30T10:56:52.891Z,3.28
2022-08-30T11:00:06.143Z,3.58
2022-08-30T11:03:39.716Z,3.40
2022-08-30T11:07:09.953Z,3.10
2022-08-30T11:10:24.713Z,3.30
2022-08-30T11:13:31.874Z,3.15
2022-08-30T11:16:38.868Z,3.10
2022-08-30T11:19:41.973Z,3.10
2022-08-30T11:23:13.382Z,3.08
2022-08-30T11:26:45.299Z,3.10
2022-08-30T11:29:48.550Z,2.83
2022-08-30T11:33:25.143Z,2.90
2022-08-30T11:36:37.350Z,2.67
2022-08-30T11:39:53.875Z,3.00
2022-08-30T11:42:56.670Z,2.83
2022-08-30T11:46:24.235Z,2.55
2022-08-30T11:50:09.870Z,3.10
2022-08-30T11:53:33.363Z,2.90
2022-08-30T11:57:03.706Z,3.08
2022-08-30T12:00:30.141Z,2.50
2022-08-30T12:03:35.238Z,2.87
2022-08-30T12:06:40.928Z,3.10
2022-08-30T12:09:43.779Z,2.60
2022-08-30T12:12:49.186Z,3.10
2022-08-30T12:16:21.207Z,3.00
2022-08-30T12:19:25.798Z,2.70
2022-08-30T12:22:30.540Z,2.70
2022-08-30T12:25:34.071Z,2.50
2022-08-30T12:28:38.283Z,2.90
2022-08-30T12:32:05.286Z,2.80
2022-08-30T12:35:20.182Z,2.87
2022-08-30T12:38:27.449Z,3.00
2022-08-30T12:41:30.457Z,2.60
2022-08-30T12:44:33.766Z,2.28
2022-08-30T12:47:39.802Z,2.70
2022-08-30T12:50:51.731Z,2.70
2022-08-30T12:54:05.656Z,2.90
2022-08-30T12:57:25.705Z,2.87
2022-08-30T13:00:35.819Z,3.60
2022-08-30T13:03:38.334Z,2.95
2022-08-30T13:06:56.037Z,2.60
2022-08-30T13:10:07.927Z,2.97
2022-08-30T13:13:46.133Z,2.78
2022-08-30T13:17:19.412Z,3.40
2022-08-30T13:20:26.034Z,2.93
2022-08-30T13:23:29.544Z,3.70
2022-08-30T13:26:37.915Z,2.87
2022-08-30T13:29:46.470Z,3.37
2022-08-30T13:32:51.894Z,3.25
2022-08-30T13:35:54.682Z,3.37
2022-08-30T13:38:59.403Z,3.05
2022-08-30T13:48:49.750Z,2.75
2022-08-30T13:52:19.040Z,3.03
2022-08-30T13:55:20.329Z,3.28
2022-08-30T13:58:23.410Z,3.33
2022-08-30T14:01:26.966Z,3.30
2022-08-30T14:04:35.309Z,3.22
2022-08-30T14:07:39.561Z,3.15
2022-08-30T14:10:47.477Z,3.20
2022-08-30T14:17:14.925Z,3.10
2022-08-30T14:20:19.003Z,3.12
2022-08-30T14:23:21.975Z,3.00
2022-08-30T14:26:32.821Z,3.08
2022-08-30T14:29:36.909Z,3.45
2022-08-30T14:32:41.550Z,3.25
2022-08-30T14:35:46.844Z,3.28
2022-08-30T14:38:50.177Z,3.30
2022-08-30T14:41:55.323Z,3.17
2022-08-30T14:44:58.050Z,3.50
2022-08-30T14:48:03.919Z,3.75
2022-08-30T14:51:18.152Z,3.35
2022-08-30T14:54:25.832Z,3.92
2022-08-30T14:57:29.144Z,4.30
2022-08-30T15:00:33.430Z,3.30
2022-08-30T15:03:40.860Z,3.60
2022-08-30T15:06:47.300Z,3.20
2022-08-30T15:09:50.735Z,3.53
2022-08-30T15:12:54.431Z,3.33
2022-08-30T15:15:58.984Z,3.30
2022-08-30T15:19:06.047Z,3.78
2022-08-30T15:22:10.409Z,3.58
2022-08-30T15:25:13.970Z,3.53
2022-08-30T15:28:16.881Z,3.28
2022-08-30T15:31:23.694Z,3.10
2022-08-30T15:34:28.555Z,3.50
2022-08-30T15:37:31.475Z,3.10
2022-08-30T15:40:34.835Z,3.10
2022-08-30T15:43:41.477Z,3.40
2022-08-30T15:46:45.719Z,3.58
2022-08-30T15:49:58.163Z,3.12
2022-08-30T15:53:01.124Z,3.65
2022-08-30T15:56:05.140Z,3.17
2022-08-30T15:59:08.576Z,3.53
2022-08-30T16:02:12.244Z,3.15
2022-08-30T16:05:17.880Z,3.00
2022-08-30T16:08:20.567Z,3.08
2022-08-30T16:11:25.424Z,3.08
2022-08-30T16:14:28.083Z,3.28
2022-08-30T16:17:30.846Z,3.35
2022-08-30T16:20:33.733Z,3.10
2022-08-30T16:23:38.600Z,3.00
2022-08-30T16:26:42.857Z,2.83
2022-08-30T16:29:45.913Z,3.10
2022-08-30T16:32:49.469Z,3.10
2022-08-30T16:35:53.870Z,3.40
2022-08-30T16:38:58.551Z,3.25
2022-08-30T16:42:03.290Z,3.12
2022-08-30T16:45:10.439Z,2.62
2022-08-30T16:48:14.948Z,3.15
2022-08-30T16:51:21.974Z,3.00
2022-08-30T16:54:24.792Z,3.08
2022-08-30T16:57:27.644Z,3.40
2022-08-30T17:00:32.396Z,2.85
2022-08-30T17:03:35.142Z,2.50
2022-08-30T17:06:39.114Z,2.80
2022-08-30T17:09:43.028Z,2.50
2022-08-30T17:12:46.242Z,2.65
2022-08-30T17:15:49.425Z,2.40
2022-08-30T17:18:52.559Z,2.60
2022-08-30T17:21:56.247Z,2.42
2022-08-30T17:24:59.110Z,2.60
2022-08-30T17:28:03.802Z,2.70
2022-08-30T17:31:08.842Z,2.67
2022-08-30T17:34:13.325Z,2.50
2022-08-30T17:37:17.985Z,2.30
2022-08-30T17:40:20.767Z,2.87
2022-08-30T17:43:23.913Z,2.37
2022-08-30T17:46:28.883Z,2.58
2022-08-30T17:49:33.528Z,2.80
2022-08-30T17:52:36.462Z,2.78
2022-08-30T17:55:39.240Z,2.80
2022-08-30T17:58:42.152Z,2.35
2022-08-30T18:01:45.459Z,2.42
2022-08-30T18:04:50.257Z,2.47
2022-08-30T18:07:52.828Z,2.60
2022-08-30T18:10:55.709Z,2.55
2022-08-30T18:13:59.034Z,2.72
2022-08-30T18:17:01.858Z,2.50
2022-08-30T18:20:07.275Z,2.58
2022-08-30T18:23:10.714Z,2.65
2022-08-30T18:26:15.012Z,2.78
2022-08-30T18:29:29.290Z,2.80
2022-08-30T18:32:36.049Z,2.70
2022-08-30T18:35:47.433Z,2.40
2022-08-30T18:38:51.206Z,2.87
2022-08-30T18:41:56.825Z,2.78
2022-08-30T18:45:14.570Z,2.50
2022-08-30T18:48:19.253Z,2.70
2022-08-30T18:51:22.479Z,2.58
2022-08-30T18:54:26.132Z,2.53
2022-08-30T18:57:28.674Z,2.60
2022-08-30T19:00:35.038Z,2.60
2022-08-30T19:03:37.756Z,2.78
2022-08-30T19:06:42.942Z,2.87
2022-08-30T19:09:46.780Z,2.28
2022-08-30T19:12:50.565Z,2.47
2022-08-30T19:15:54.876Z,2.62
2022-08-30T19:18:59.203Z,2.80
2022-08-30T19:22:02.308Z,2.50
2022-08-30T19:25:07.925Z,3.22
2022-08-30T19:28:11.797Z,2.80
2022-08-30T19:31:14.816Z,2.80
2022-08-30T19:34:17.654Z,2.75
2022-08-30T19:37:21.941Z,3.30
2022-08-30T19:40:25.485Z,2.50
2022-08-30T19:43:30.772Z,2.50
2022-08-30T19:46:33.470Z,2.50
2022-08-30T19:49:36.818Z,2.72
2022-08-30T19:52:40.172Z,2.80
2022-08-30T19:55:43.014Z,2.72
2022-08-30T19:58:46.587Z,2.90
2022-08-30T20:01:49.539Z,2.78
2022-08-30T20:04:53.045Z,2.70
2022-08-30T20:07:58.334Z,2.83
2022-08-30T20:11:01.250Z,2.75
2022-08-30T20:14:04.773Z,3.40
2022-08-30T20:17:11.739Z,2.75
2022-08-30T20:20:17.402Z,2.70
2022-08-30T20:23:25.432Z,2.80
2022-08-30T20:26:30.040Z,2.78
2022-08-30T20:29:37.991Z,2.78
2022-08-30T20:32:44.856Z,2.50
2022-08-30T20:35:49.480Z,3.17
2022-08-30T20:38:52.809Z,2.90
2022-08-30T20:41:55.669Z,2.80
2022-08-30T20:44:58.880Z,3.05
2022-08-30T20:48:05.212Z,2.62
2022-08-30T20:51:10.286Z,2.90
2022-08-30T20:54:13.536Z,3.00
2022-08-30T20:57:23.852Z,3.28
2022-08-30T21:00:27.744Z,3.12
2022-08-30T21:03:30.172Z,2.90
2022-08-30T21:06:37.566Z,3.17
2022-08-30T21:09:40.061Z,2.90
2022-08-30T21:12:43.021Z,3.00
2022-08-30T21:15:46.244Z,2.97
2022-08-30T21:18:49.441Z,3.20
2022-08-30T21:21:52.692Z,3.67
2022-08-30T21:24:55.432Z,3.25
2022-08-30T21:27:57.968Z,3.65
2022-08-30T21:31:15.737Z,3.50
2022-08-30T21:34:18.369Z,3.90
2022-08-30T21:37:22.242Z,3.55
2022-08-30T21:40:24.760Z,3.45
2022-08-30T21:43:27.914Z,4.12
2022-08-30T21:46:32.391Z,3.58
2022-08-30T21:49:36.448Z,4.05
2022-08-30T21:52:38.999Z,4.12
2022-08-30T21:55:41.754Z,3.95
2022-08-30T21:58:46.460Z,3.65
2022-08-30T22:01:50.066Z,3.85
2022-08-30T22:04:52.873Z,3.97
2022-08-30T22:07:55.344Z,3.40
2022-08-30T22:10:58.069Z,3.75
2022-08-30T22:14:00.896Z,3.78
2022-08-30T22:17:04.624Z,3.67
2022-08-30T22:20:08.046Z,3.40
2022-08-30T22:23:10.821Z,3.45
2022-08-30T22:26:22.479Z,3.17
2022-08-30T22:29:25.237Z,3.40
2022-08-30T22:32:28.618Z,3.37
2022-08-30T22:35:31.439Z,3.80
2022-08-30T22:38:34.305Z,3.35
2022-08-30T22:41:37.864Z,4.10
2022-08-30T22:44:40.350Z,3.47
2022-08-30T22:47:43.348Z,3.67
2022-08-30T22:50:46.623Z,3.70
2022-08-30T22:53:50.248Z,4.00
2022-08-30T22:56:52.695Z,4.10
2022-08-30T22:59:55.644Z,4.12
2022-08-30T23:02:58.422Z,4.10
2022-08-30T23:06:02.263Z,4.70
2022-08-30T23:09:06.345Z,4.10
2022-08-30T23:12:09.567Z,4.40
2022-08-30T23:15:15.543Z,3.83
2022-08-30T23:18:18.489Z,4.25
2022-08-30T23:21:24.299Z,3.78
2022-08-30T23:24:49.095Z,4.00
2022-08-30T23:28:10.370Z,3.90
2022-08-30T23:31:36.324Z,3.95
2022-08-30T23:34:57.613Z,4.25
2022-08-30T23:38:22.735Z,4.07
2022-08-30T23:41:44.289Z,3.85
2022-08-30T23:45:05.617Z,4.32
2022-08-30T23:48:26.447Z,3.97
2022-08-30T23:51:47.805Z,3.97
2022-08-30T23:55:09.168Z,4.00
2022-08-30T23:58:30.472Z,4.07
